Current Weather

Randolph Afb

Universal City, Texas (KRND)

Report from: Monday, June 24, 2024 3:50 PM CDT
Current time: Tuesday, June 25, 2024 3:52 AM CDT

Nearby weather – Weather history – Daily summaries
Weather forecast

Temperature35.0°C (95.0°F)
Heat index39.6°C (103.2°F)
Dew point22.0°C (71.6°F)
Winds 9 kts (4.6 m/s, 10.4 mph) Southeast (130°)
Visibility10 mi. (16.1 km)
Clouds Scattered clouds 5,000 ft. (1,524 m)
Altimeter29.88 in.Hg (1012 mB)
Relative humidity47 %
Density altitude2,707 ft. (825 m)
Sea-level pressure101.1 kPa (1011 mB, 29.85 in.Hg)
Remarks Fully automated report
Automated weather observing station with precipitation discriminator
Flight conditions Visual Meteorological Conditions
Raw dataKRND 242050Z AUTO 13009KT 10SM SCT050 35/22 A2988 RMK AO2 SLP108
An unhandled exception has occurred. See browser dev tools for details. Reload 🗙